Terminal Aerodrome Forecast
Issued by NWS

Home | Current Version | Previous Version | Graphics & Text | Print | Product List | Glossary On
Versions: 1 2 3 4 5 6 7 8 9 10 11 12 13 14 15 16 17 18 19 20 21 22
000
FTUS43 KUNR 300500
TAFGCC
TAF
KGCC 300536Z 3006/0106 15008KT P6SM OVC010
      TEMPO 3006/3008 5SM -SHRA OVC008
     FM300800 30011KT 3SM -SHRA OVC008
     FM301200 33018G28KT P6SM -SHRA OVC010
     FM301600 31018KT P6SM BKN040=

USA.gov is the U.S. government's official web portal to all federal, state and local government web resources and services.